createdAt,value
2022-08-02T00:00:42.856Z,2.20
2022-08-02T00:03:10.256Z,2.67
2022-08-02T00:05:37.895Z,2.47
2022-08-02T00:08:08.069Z,2.57
2022-08-02T00:10:35.692Z,2.63
2022-08-02T00:13:03.089Z,2.30
2022-08-02T00:15:30.664Z,2.33
2022-08-02T00:17:57.963Z,2.50
2022-08-02T00:20:25.455Z,2.50
2022-08-02T00:22:53.799Z,4.40
2022-08-02T00:25:21.789Z,2.70
2022-08-02T00:27:49.100Z,2.60
2022-08-02T00:30:16.602Z,3.57
2022-08-02T00:32:43.805Z,2.50
2022-08-02T00:35:11.408Z,2.80
2022-08-02T00:37:40.113Z,4.23
2022-08-02T00:40:09.625Z,2.17
2022-08-02T00:42:37.048Z,3.13
2022-08-02T00:45:04.830Z,2.77
2022-08-02T00:47:32.077Z,2.83
2022-08-02T00:49:59.493Z,2.93
2022-08-02T00:52:26.706Z,2.77
2022-08-02T00:54:53.975Z,2.50
2022-08-02T00:57:21.307Z,2.30
2022-08-02T00:59:49.522Z,2.63
2022-08-02T01:02:17.253Z,4.03
2022-08-02T01:04:45.001Z,3.27
2022-08-02T01:07:13.932Z,2.87
2022-08-02T01:09:43.340Z,2.73
2022-08-02T01:12:11.488Z,2.27
2022-08-02T01:14:41.070Z,2.63
2022-08-02T01:17:23.998Z,2.60
2022-08-02T01:20:03.459Z,4.33
2022-08-02T01:23:03.781Z,2.80
2022-08-02T01:25:55.321Z,3.00
2022-08-02T01:28:37.799Z,2.97
2022-08-02T01:31:37.630Z,3.97
2022-08-02T01:34:18.760Z,3.27
2022-08-02T01:36:56.320Z,3.40
2022-08-02T01:39:32.156Z,2.80
2022-08-02T01:42:02.439Z,3.07
2022-08-02T01:44:34.982Z,4.03
2022-08-02T01:47:07.725Z,3.23
2022-08-02T01:49:37.438Z,3.07
2022-08-02T01:52:23.744Z,3.17
2022-08-02T01:54:54.721Z,3.63
2022-08-02T01:57:23.459Z,3.93
2022-08-02T01:59:52.060Z,2.93
2022-08-02T02:02:21.172Z,3.87
2022-08-02T02:04:52.339Z,3.53
2022-08-02T02:07:21.601Z,2.90
2022-08-02T02:09:51.055Z,3.17
2022-08-02T02:12:20.375Z,3.00
2022-08-02T02:14:51.544Z,2.90
2022-08-02T02:18:11.422Z,2.97
2022-08-02T02:20:15.098Z,3.20
2022-08-02T02:22:43.429Z,3.07
2022-08-02T02:25:12.585Z,3.17
2022-08-02T02:27:54.580Z,3.10
2022-08-02T02:30:26.319Z,2.80
2022-08-02T02:32:56.035Z,3.27
2022-08-02T02:35:24.355Z,3.43
2022-08-02T02:37:55.310Z,3.10
2022-08-02T02:40:26.529Z,3.07
2022-08-02T02:42:55.123Z,3.07
2022-08-02T02:45:23.579Z,3.20
2022-08-02T02:47:51.350Z,3.57
2022-08-02T02:50:19.127Z,3.50
2022-08-02T02:52:48.865Z,3.67
2022-08-02T02:55:18.320Z,2.90
2022-08-02T02:57:46.687Z,3.33
2022-08-02T03:00:15.387Z,5.67
2022-08-02T03:02:46.485Z,3.50
2022-08-02T03:05:15.302Z,3.30
2022-08-02T03:07:42.819Z,3.27
2022-08-02T03:10:10.909Z,2.97
2022-08-02T03:12:38.808Z,3.00
2022-08-02T03:15:08.548Z,3.27
2022-08-02T03:17:44.635Z,3.20
2022-08-02T03:20:14.578Z,3.47
2022-08-02T03:22:43.130Z,2.77
2022-08-02T03:25:11.669Z,4.50
2022-08-02T03:27:39.125Z,3.33
2022-08-02T03:30:08.686Z,3.27
2022-08-02T03:32:37.182Z,4.13
2022-08-02T03:35:08.248Z,3.77
2022-08-02T03:37:37.312Z,3.13
2022-08-02T03:40:08.769Z,2.97
2022-08-02T03:42:36.119Z,2.83
2022-08-02T03:45:08.475Z,3.20
2022-08-02T03:47:39.452Z,3.37
2022-08-02T03:50:11.833Z,3.10
2022-08-02T03:52:42.864Z,4.07
2022-08-02T03:55:12.064Z,3.37
2022-08-02T03:57:41.144Z,3.03
2022-08-02T04:00:11.407Z,2.67
2022-08-02T04:02:41.516Z,3.47
2022-08-02T04:05:09.491Z,3.23
2022-08-02T04:08:32.985Z,3.43
2022-08-02T04:10:24.521Z,3.27
2022-08-02T04:12:52.160Z,3.67
2022-08-02T04:15:19.950Z,3.07
2022-08-02T04:17:53.370Z,3.47
2022-08-02T04:20:27.983Z,4.97
2022-08-02T04:23:03.493Z,3.20
2022-08-02T04:25:35.273Z,3.43
2022-08-02T04:28:17.613Z,2.67
2022-08-02T04:30:48.586Z,2.93
2022-08-02T04:33:16.348Z,2.77
2022-08-02T04:35:45.017Z,3.03
2022-08-02T04:38:16.517Z,2.90
2022-08-02T04:40:55.730Z,2.83
2022-08-02T04:43:24.288Z,3.17
2022-08-02T04:45:55.566Z,2.90
2022-08-02T04:48:23.983Z,3.70
2022-08-02T04:50:52.064Z,3.43
2022-08-02T04:53:19.841Z,3.20
2022-08-02T04:55:47.190Z,2.43
2022-08-02T04:58:38.664Z,3.43
2022-08-02T05:01:02.841Z,2.70
2022-08-02T05:03:30.183Z,2.90
2022-08-02T05:05:57.466Z,2.60
2022-08-02T05:08:24.700Z,2.67
2022-08-02T05:10:52.091Z,2.97
2022-08-02T05:13:19.323Z,2.80
2022-08-02T05:15:49.964Z,2.93
2022-08-02T05:18:18.041Z,3.10
2022-08-02T05:20:45.257Z,2.93
2022-08-02T05:23:12.932Z,3.10
2022-08-02T05:25:40.167Z,2.50
2022-08-02T05:28:11.424Z,2.50
2022-08-02T05:30:39.964Z,3.00
2022-08-02T05:33:08.433Z,2.70
2022-08-02T05:35:35.835Z,2.83
2022-08-02T05:38:03.559Z,2.70
2022-08-02T05:40:31.114Z,2.90
2022-08-02T05:42:58.729Z,2.93
2022-08-02T05:45:26.168Z,2.63
2022-08-02T05:47:53.533Z,2.73
2022-08-02T05:50:21.294Z,3.03
2022-08-02T05:53:05.575Z,2.27
2022-08-02T05:55:47.790Z,2.67
2022-08-02T05:58:27.288Z,2.47
2022-08-02T06:00:57.202Z,2.37
2022-08-02T06:03:47.317Z,2.33
2022-08-02T06:06:18.171Z,2.30
2022-08-02T06:08:51.160Z,2.00
2022-08-02T06:11:25.995Z,1.97
2022-08-02T06:13:55.635Z,1.90
2022-08-02T06:16:32.471Z,1.80
2022-08-02T06:19:05.722Z,3.37
2022-08-02T06:22:32.399Z,2.07
2022-08-02T06:24:23.076Z,1.90
2022-08-02T06:26:55.350Z,1.97
2022-08-02T06:29:25.250Z,4.13
2022-08-02T06:31:54.581Z,2.30
2022-08-02T06:34:22.039Z,2.03
2022-08-02T06:37:07.960Z,1.90
2022-08-02T06:39:48.131Z,1.80
2022-08-02T06:42:27.484Z,2.40
2022-08-02T06:44:58.072Z,1.90
2022-08-02T06:47:26.997Z,1.63
2022-08-02T06:49:56.732Z,1.63
2022-08-02T06:52:28.834Z,1.90
2022-08-02T06:54:59.893Z,2.07
2022-08-02T06:57:31.612Z,2.00
2022-08-02T07:00:02.038Z,1.70
2022-08-02T07:02:30.880Z,2.10
2022-08-02T07:04:58.673Z,1.50
2022-08-02T07:07:26.929Z,1.70
2022-08-02T07:09:56.291Z,1.60
2022-08-02T07:12:32.026Z,1.60
2022-08-02T07:15:01.565Z,1.57
2022-08-02T07:17:30.158Z,1.73
2022-08-02T07:19:59.281Z,1.20
2022-08-02T07:22:28.457Z,1.50
2022-08-02T07:24:59.945Z,2.13
2022-08-02T07:27:27.743Z,1.80
2022-08-02T07:29:56.685Z,1.60
2022-08-02T07:32:26.990Z,1.80
2022-08-02T07:34:56.310Z,1.63
2022-08-02T07:37:53.846Z,1.57
2022-08-02T07:40:20.834Z,1.57
2022-08-02T07:42:52.374Z,1.50
2022-08-02T07:45:21.011Z,1.67
2022-08-02T07:47:48.332Z,1.60
2022-08-02T07:50:18.364Z,1.00
2022-08-02T07:52:47.147Z,1.20
2022-08-02T07:55:16.616Z,1.63
2022-08-02T07:57:46.658Z,1.77
2022-08-02T08:00:17.707Z,1.20
2022-08-02T08:02:46.323Z,1.50
2022-08-02T08:05:14.569Z,1.30
2022-08-02T08:07:42.557Z,1.40
2022-08-02T08:10:10.682Z,1.30
2022-08-02T08:12:38.449Z,1.00
2022-08-02T08:15:06.751Z,1.00
2022-08-02T08:17:35.471Z,1.03
2022-08-02T08:20:05.044Z,1.03
2022-08-02T08:22:32.570Z,1.27
2022-08-02T08:24:59.968Z,2.23
2022-08-02T08:27:27.412Z,1.10
2022-08-02T08:29:55.308Z,0.80
2022-08-02T08:32:23.116Z,1.10
2022-08-02T08:34:51.651Z,0.70
2022-08-02T08:37:19.704Z,1.57
2022-08-02T08:39:56.688Z,0.93
2022-08-02T08:42:31.060Z,0.80
2022-08-02T08:44:59.517Z,1.87
2022-08-02T08:47:34.636Z,1.57
2022-08-02T08:50:11.718Z,1.83
2022-08-02T08:53:06.808Z,1.00
2022-08-02T08:55:36.835Z,1.20
2022-08-02T08:58:06.052Z,2.10
2022-08-02T09:00:36.557Z,1.00
2022-08-02T09:03:06.217Z,1.30
2022-08-02T09:05:38.551Z,1.97
2022-08-02T09:08:07.369Z,1.30
2022-08-02T09:10:39.486Z,1.20
2022-08-02T09:13:38.368Z,1.07
2022-08-02T09:16:11.544Z,1.00
2022-08-02T09:18:47.321Z,1.10
2022-08-02T09:21:17.357Z,1.00
2022-08-02T09:23:50.552Z,0.90
2022-08-02T09:26:21.168Z,1.20
2022-08-02T09:28:50.888Z,1.20
2022-08-02T09:31:20.799Z,1.40
2022-08-02T09:33:54.710Z,1.83
2022-08-02T09:36:23.400Z,1.30
2022-08-02T09:39:01.639Z,1.83
2022-08-02T09:41:31.579Z,1.20
2022-08-02T09:44:05.184Z,1.20
2022-08-02T09:46:38.420Z,1.30
2022-08-02T09:49:10.213Z,1.00
2022-08-02T09:51:58.177Z,1.07
2022-08-02T09:54:29.851Z,1.10
2022-08-02T09:57:00.905Z,1.43
2022-08-02T09:59:29.642Z,1.53
2022-08-02T10:02:17.269Z,1.20
2022-08-02T10:04:52.676Z,1.20
2022-08-02T10:07:22.936Z,1.30
2022-08-02T10:09:52.461Z,1.33
2022-08-02T10:12:21.442Z,0.97
2022-08-02T10:14:52.344Z,1.07
2022-08-02T10:17:21.538Z,1.00
2022-08-02T10:20:02.699Z,1.20
2022-08-02T10:22:35.072Z,1.07
2022-08-02T10:25:05.607Z,1.10
2022-08-02T10:28:02.608Z,1.13
2022-08-02T10:30:25.406Z,0.90
2022-08-02T10:32:55.279Z,1.33
2022-08-02T10:35:26.555Z,1.40
2022-08-02T10:38:03.796Z,1.87
2022-08-02T10:40:51.513Z,1.20
2022-08-02T10:43:42.321Z,1.10
2022-08-02T10:46:34.097Z,1.00
2022-08-02T10:49:36.769Z,1.13
2022-08-02T10:52:03.289Z,1.30
2022-08-02T10:54:40.196Z,1.40
2022-08-02T10:57:19.601Z,1.83
2022-08-02T10:59:48.159Z,1.60
2022-08-02T11:02:39.403Z,1.40
2022-08-02T11:05:28.174Z,1.27
2022-08-02T11:08:22.147Z,1.00
2022-08-02T11:10:49.638Z,1.10
2022-08-02T11:13:21.693Z,1.33
2022-08-02T11:15:55.232Z,1.10
2022-08-02T11:18:24.618Z,2.30
2022-08-02T11:21:29.137Z,1.13
2022-08-02T11:23:57.381Z,1.10
2022-08-02T11:26:31.405Z,1.47
2022-08-02T11:29:01.869Z,1.50
2022-08-02T11:31:30.575Z,1.20
2022-08-02T11:33:58.093Z,1.20
2022-08-02T11:36:25.561Z,2.57
2022-08-02T11:39:16.997Z,1.37
2022-08-02T11:41:50.193Z,1.40
2022-08-02T11:44:18.417Z,1.50
2022-08-02T11:47:03.003Z,1.17
2022-08-02T11:49:31.308Z,1.43
2022-08-02T11:52:08.335Z,1.30
2022-08-02T11:54:38.407Z,1.30
2022-08-02T11:57:22.861Z,1.20
2022-08-02T11:59:52.266Z,1.37
2022-08-02T12:02:22.451Z,1.70
2022-08-02T12:04:59.242Z,1.30
2022-08-02T12:07:35.230Z,1.40
2022-08-02T12:10:09.653Z,2.67
2022-08-02T12:12:55.105Z,1.40
2022-08-02T12:15:45.019Z,1.83
2022-08-02T12:18:37.613Z,1.83
2022-08-02T12:21:21.428Z,1.50
2022-08-02T12:24:00.352Z,1.73
2022-08-02T12:26:30.067Z,1.03
2022-08-02T12:29:01.900Z,1.50
2022-08-02T12:31:57.530Z,1.57
2022-08-02T12:34:31.396Z,1.90
2022-08-02T12:37:04.439Z,1.40
2022-08-02T12:39:47.131Z,1.40
2022-08-02T12:42:16.513Z,2.50
2022-08-02T12:45:07.610Z,1.10
2022-08-02T12:47:46.282Z,1.17
2022-08-02T12:50:37.561Z,1.50
2022-08-02T12:53:06.098Z,2.13
2022-08-02T12:56:02.510Z,1.30
2022-08-02T12:58:24.002Z,1.20
2022-08-02T13:01:01.796Z,1.33
2022-08-02T13:04:07.944Z,1.60
2022-08-02T13:06:43.010Z,1.93
2022-08-02T13:09:17.501Z,2.00
2022-08-02T13:11:45.260Z,1.50
2022-08-02T13:14:14.395Z,1.40
2022-08-02T13:16:43.200Z,1.67
2022-08-02T13:19:10.525Z,1.40
2022-08-02T13:21:41.639Z,2.80
2022-08-02T13:24:39.297Z,1.40
2022-08-02T13:27:13.561Z,1.50
2022-08-02T13:29:41.426Z,1.57
2022-08-02T13:32:09.060Z,1.70
2022-08-02T13:34:36.660Z,1.50
2022-08-02T13:37:04.819Z,1.60
2022-08-02T13:39:33.599Z,1.50
2022-08-02T13:42:01.090Z,1.40
2022-08-02T13:44:28.614Z,1.40
2022-08-02T13:46:56.770Z,1.50
2022-08-02T13:49:51.273Z,1.50
2022-08-02T13:52:12.538Z,1.20
2022-08-02T13:54:40.713Z,1.40
2022-08-02T13:57:08.243Z,1.60
2022-08-02T13:59:56.699Z,1.37
2022-08-02T14:02:23.463Z,1.30
2022-08-02T14:04:50.997Z,1.47
2022-08-02T14:07:18.855Z,1.30
2022-08-02T14:09:53.893Z,1.80
2022-08-02T14:12:21.493Z,1.63
2022-08-02T14:14:49.956Z,1.30
2022-08-02T14:17:19.141Z,1.50
2022-08-02T14:19:46.668Z,1.60
2022-08-02T14:22:14.291Z,1.67
2022-08-02T14:24:42.030Z,1.30
2022-08-02T14:27:11.332Z,1.60
2022-08-02T14:29:38.854Z,1.27
2022-08-02T14:32:07.251Z,1.30
2022-08-02T14:34:34.671Z,1.53
2022-08-02T14:37:02.456Z,1.60
2022-08-02T14:39:43.163Z,1.67
2022-08-02T14:42:17.748Z,1.43
2022-08-02T14:44:45.314Z,1.73
2022-08-02T14:47:12.890Z,1.40
2022-08-02T14:49:47.117Z,1.40
2022-08-02T14:52:17.407Z,1.40
2022-08-02T14:54:45.144Z,1.40
2022-08-02T14:57:14.628Z,1.37
2022-08-02T14:59:42.277Z,1.30
2022-08-02T15:02:13.938Z,1.50
2022-08-02T15:04:43.370Z,1.30
2022-08-02T15:07:12.475Z,1.50
2022-08-02T15:09:41.179Z,1.40
2022-08-02T15:12:10.700Z,1.50
2022-08-02T15:14:39.586Z,3.43
2022-08-02T15:17:08.053Z,1.70
2022-08-02T15:19:57.537Z,1.50
2022-08-02T15:22:23.392Z,1.50
2022-08-02T15:24:52.134Z,1.67
2022-08-02T15:27:19.813Z,1.37
2022-08-02T15:29:47.619Z,1.50
2022-08-02T15:32:19.007Z,1.33
2022-08-02T15:34:47.830Z,1.20
2022-08-02T15:37:15.610Z,1.50
2022-08-02T15:39:44.413Z,1.50
2022-08-02T15:42:12.460Z,1.30
2022-08-02T15:44:40.560Z,1.50
2022-08-02T15:47:08.493Z,1.40
2022-08-02T15:49:40.748Z,1.40
2022-08-02T15:52:10.153Z,2.20
2022-08-02T15:54:38.465Z,1.50
2022-08-02T15:57:06.411Z,1.30
2022-08-02T15:59:34.237Z,2.03
2022-08-02T16:02:02.198Z,2.67
2022-08-02T16:04:30.345Z,3.17
2022-08-02T16:07:01.591Z,1.50
2022-08-02T16:09:29.711Z,3.67
2022-08-02T16:11:57.775Z,1.40
2022-08-02T16:14:25.557Z,1.33
2022-08-02T16:16:53.232Z,1.83
2022-08-02T16:19:30.396Z,1.40
2022-08-02T16:22:11.241Z,1.50
2022-08-02T16:24:39.599Z,2.07
2022-08-02T16:27:08.912Z,1.80
2022-08-02T16:29:37.951Z,1.60
2022-08-02T16:32:06.232Z,1.50
2022-08-02T16:34:56.671Z,1.90
2022-08-02T16:37:21.879Z,1.30
2022-08-02T16:39:49.852Z,2.60
2022-08-02T16:42:25.051Z,1.40
2022-08-02T16:44:54.804Z,1.50
2022-08-02T16:47:37.174Z,1.50
2022-08-02T16:50:11.020Z,2.17
2022-08-02T16:52:41.002Z,1.40
2022-08-02T16:55:11.411Z,1.40
2022-08-02T16:57:43.231Z,1.40
2022-08-02T17:00:15.526Z,1.87
2022-08-02T17:02:44.049Z,1.47
2022-08-02T17:05:15.008Z,1.20
2022-08-02T17:10:34.419Z,1.50
2022-08-02T17:13:11.617Z,1.10
2022-08-02T17:18:42.459Z,1.67
2022-08-02T17:21:11.589Z,1.10
2022-08-02T17:24:02.678Z,1.43
2022-08-02T17:26:30.467Z,1.20
2022-08-02T17:29:16.370Z,1.57
2022-08-02T17:32:06.206Z,1.40
2022-08-02T17:34:37.295Z,3.93
2022-08-02T17:37:06.467Z,1.47
2022-08-02T17:39:44.439Z,1.50
2022-08-02T17:42:24.125Z,1.53
2022-08-02T17:45:00.975Z,1.43
2022-08-02T17:47:42.421Z,1.77
2022-08-02T17:50:12.523Z,1.53
2022-08-02T17:52:50.558Z,1.63
2022-08-02T17:55:21.248Z,1.40
2022-08-02T17:57:56.917Z,1.30
2022-08-02T18:00:37.343Z,1.60
2022-08-02T18:03:07.883Z,1.60
2022-08-02T18:05:39.933Z,1.37
2022-08-02T18:08:23.796Z,1.43
2022-08-02T18:10:53.844Z,1.10
2022-08-02T18:13:22.270Z,1.50
2022-08-02T18:15:57.265Z,1.33
2022-08-02T18:18:30.034Z,1.30
2022-08-02T18:21:22.721Z,1.50
2022-08-02T18:23:49.577Z,1.53
2022-08-02T18:26:27.681Z,1.50
2022-08-02T18:28:57.426Z,1.40
2022-08-02T18:31:27.014Z,1.47
2022-08-02T18:34:01.869Z,1.73
2022-08-02T18:36:31.420Z,1.60
2022-08-02T18:39:08.047Z,1.50
2022-08-02T18:41:36.833Z,1.27
2022-08-02T18:44:06.167Z,1.40
2022-08-02T18:46:34.025Z,1.53
2022-08-02T18:49:06.557Z,2.00
2022-08-02T18:51:36.669Z,1.43
2022-08-02T18:54:05.416Z,1.67
2022-08-02T18:56:33.043Z,2.43
2022-08-02T18:59:07.647Z,1.20
2022-08-02T19:01:45.046Z,1.40
2022-08-02T19:04:14.354Z,1.30
2022-08-02T19:06:42.266Z,2.63
2022-08-02T19:09:14.297Z,1.60
2022-08-02T19:11:47.240Z,1.13
2022-08-02T19:14:24.247Z,2.40
2022-08-02T19:16:58.269Z,1.60
2022-08-02T19:19:29.151Z,1.50
2022-08-02T19:22:18.911Z,1.57
2022-08-02T19:24:47.907Z,1.63
2022-08-02T19:27:31.958Z,1.70
2022-08-02T19:29:59.845Z,1.20
2022-08-02T19:32:39.606Z,1.60
2022-08-02T19:35:19.925Z,1.83
2022-08-02T19:38:05.688Z,1.60
2022-08-02T19:40:33.570Z,1.50
2022-08-02T19:44:21.245Z,1.57
2022-08-02T19:45:50.987Z,1.40
2022-08-02T19:48:23.496Z,1.60
2022-08-02T19:50:59.538Z,2.13
2022-08-02T19:53:48.899Z,4.33
2022-08-02T19:56:21.145Z,1.57
2022-08-02T19:58:57.129Z,1.73
2022-08-02T20:01:36.859Z,1.40
2022-08-02T20:04:13.205Z,1.60
2022-08-02T20:06:45.179Z,1.40
2022-08-02T20:09:21.436Z,1.87
2022-08-02T20:11:54.478Z,1.67
2022-08-02T20:14:27.468Z,2.03
2022-08-02T20:16:58.794Z,1.40
2022-08-02T20:19:29.136Z,1.83
2022-08-02T20:21:59.885Z,1.50
2022-08-02T20:24:28.789Z,1.60
2022-08-02T20:27:00.449Z,1.40
2022-08-02T20:29:48.446Z,1.83
2022-08-02T20:32:23.747Z,1.60
2022-08-02T20:38:00.673Z,1.43
2022-08-02T20:40:28.235Z,2.83
2022-08-02T20:42:55.759Z,1.80
2022-08-02T20:45:27.095Z,1.20
2022-08-02T20:47:55.828Z,1.47
2022-08-02T20:50:49.350Z,1.67
2022-08-02T20:53:23.729Z,1.40
2022-08-02T20:55:54.562Z,1.50
2022-08-02T20:58:26.885Z,1.37
2022-08-02T21:00:59.540Z,1.50
2022-08-02T21:03:39.302Z,1.77
2022-08-02T21:06:14.853Z,1.60
2022-08-02T21:08:46.187Z,3.33
2022-08-02T21:11:14.309Z,2.70
2022-08-02T21:13:46.492Z,2.20
2022-08-02T21:16:18.257Z,4.50
2022-08-02T21:18:47.508Z,5.13
2022-08-02T21:21:16.306Z,3.00
2022-08-02T21:23:48.360Z,2.10
2022-08-02T21:26:19.829Z,1.83
2022-08-02T21:28:53.601Z,3.23
2022-08-02T21:31:21.670Z,2.20
2022-08-02T21:33:58.738Z,2.13
2022-08-02T21:36:34.042Z,1.87
2022-08-02T21:39:05.817Z,1.83
2022-08-02T21:41:46.553Z,2.10
2022-08-02T21:44:16.773Z,1.70
2022-08-02T21:46:50.373Z,1.80
2022-08-02T21:49:27.441Z,1.73
2022-08-02T21:52:10.414Z,1.50
2022-08-02T21:54:45.180Z,1.70
2022-08-02T21:57:17.519Z,1.47
2022-08-02T21:59:47.618Z,1.63
2022-08-02T22:02:19.230Z,1.80
2022-08-02T22:04:49.693Z,2.10
2022-08-02T22:07:24.615Z,2.00
2022-08-02T22:09:56.028Z,2.53
2022-08-02T22:12:25.917Z,1.70
2022-08-02T22:14:56.425Z,1.70
2022-08-02T22:17:46.874Z,2.10
2022-08-02T22:20:19.756Z,1.90
2022-08-02T22:22:53.235Z,1.60
2022-08-02T22:25:36.431Z,3.07
2022-08-02T22:28:36.257Z,1.70
2022-08-02T22:30:56.964Z,1.83
2022-08-02T22:33:47.315Z,1.97
2022-08-02T22:36:30.606Z,1.90
2022-08-02T22:38:59.346Z,1.67
2022-08-02T22:42:05.302Z,2.00
2022-08-02T22:44:15.173Z,1.80
2022-08-02T22:46:46.804Z,1.53
2022-08-02T22:49:38.848Z,1.80
2022-08-02T22:52:05.325Z,1.70
2022-08-02T22:54:33.476Z,1.87
2022-08-02T22:57:00.925Z,2.57
2022-08-02T22:58:36.734Z,1.20
2022-08-02T22:58:49.437Z,1.50
2022-08-02T22:59:05.573Z,1.87
2022-08-02T22:59:39.472Z,2.07
2022-08-02T23:02:08.525Z,2.37
2022-08-02T23:04:36.966Z,1.97
2022-08-02T23:07:05.275Z,1.97
2022-08-02T23:09:33.448Z,2.07
2022-08-02T23:12:01.171Z,1.87
2022-08-02T23:14:28.689Z,1.90
2022-08-02T23:17:14.911Z,2.00
2022-08-02T23:19:51.114Z,1.87
2022-08-02T23:22:29.959Z,3.13
2022-08-02T23:25:01.492Z,2.33
2022-08-02T23:27:30.506Z,2.30
2022-08-02T23:29:58.693Z,2.03
2022-08-02T23:32:26.426Z,2.30
2022-08-02T23:34:58.582Z,2.30
2022-08-02T23:37:26.356Z,2.83
2022-08-02T23:39:54.185Z,2.27
2022-08-02T23:42:23.503Z,1.80
2022-08-02T23:44:51.058Z,1.93
2022-08-02T23:47:19.532Z,2.13
2022-08-02T23:49:47.373Z,1.77
2022-08-02T23:52:14.897Z,1.90
2022-08-02T23:54:42.917Z,1.73
2022-08-02T23:57:19.800Z,2.17
2022-08-02T23:59:48.993Z,2.20
